Wetterdaten: Woche 28.10.13 - 03.11.13 (KW44)
Datum Zeit Temp. A. Feuchte A. Luftdruck Regen Wind Richtung Taupunkt Windchill Windben
28.10.2013 00:00 18,2 C 62 % 1015,0 hPa 0,0 l/m 4,2 km/h N 10,7 C 18,2 C 19,7 km/h
28.10.2013 01:00 18,1 C 64 % 1015,0 hPa 0,0 l/m 8,9 km/h N 11,1 C 16,9 C 21,3 km/h
28.10.2013 02:00 17,8 C 67 % 1014,7 hPa 0,0 l/m 5,2 km/h N 11,5 C 17,1 C 16,1 km/h
28.10.2013 03:00 16,0 C 75 % 1014,5 hPa 0,0 l/m 0,0 km/h N 11,5 C 16,0 C 0,4 km/h
28.10.2013 04:00 14,6 C 80 % 1015,0 hPa 0,0 l/m 0,0 km/h N 11,1 C 14,6 C 0,0 km/h
28.10.2013 05:00 14,2 C 83 % 1015,4 hPa 0,3 l/m 0,0 km/h N 11,3 C 14,2 C 0,0 km/h
28.10.2013 06:00 13,9 C 84 % 1014,8 hPa 0,0 l/m 0,0 km/h N 11,2 C 13,9 C 0,0 km/h
28.10.2013 07:00 14,0 C 84 % 1014,2 hPa 0,0 l/m 0,0 km/h N 11,2 C 14,0 C 0,0 km/h
28.10.2013 08:00 15,2 C 79 % 1013,9 hPa 0,0 l/m 0,0 km/h N 11,6 C 15,2 C 0,0 km/h
28.10.2013 09:00 16,8 C 73 % 1013,3 hPa 0,0 l/m 2,1 km/h N 11,8 C 16,8 C 8,0 km/h
28.10.2013 10:00 17,6 C 71 % 1012,9 hPa 0,0 l/m 3,6 km/h N 12,3 C 17,6 C 11,7 km/h
28.10.2013 11:00 19,2 C 67 % 1012,0 hPa 0,3 l/m 5,6 km/h N 12,9 C 19,2 C 14,9 km/h
28.10.2013 12:00 21,1 C 63 % 1010,6 hPa 0,0 l/m 5,4 km/h N 13,9 C 21,1 C 16,1 km/h
28.10.2013 13:00 21,1 C 66 % 1009,4 hPa 0,0 l/m 5,2 km/h N 14,5 C 20,9 C 15,7 km/h
28.10.2013 14:00 21,8 C 63 % 1008,5 hPa 0,0 l/m 7,0 km/h N 14,5 C 21,6 C 19,3 km/h
28.10.2013 15:00 22,0 C 61 % 1007,9 hPa 0,0 l/m 5,5 km/h N 14,1 C 22,0 C 16,9 km/h
28.10.2013 16:00 20,4 C 66 % 1007,5 hPa 0,0 l/m 0,4 km/h N 13,7 C 20,4 C 4,0 km/h
28.10.2013 17:00 17,5 C 73 % 1007,3 hPa 0,0 l/m 0,0 km/h N 12,6 C 17,5 C 1,2 km/h
28.10.2013 18:00 14,6 C 79 % 1007,5 hPa 0,0 l/m 0,1 km/h N 11,1 C 14,6 C 1,2 km/h
28.10.2013 19:00 13,3 C 84 % 1007,9 hPa 0,0 l/m 0,1 km/h N 10,6 C 13,3 C 2,0 km/h
28.10.2013 20:00 12,1 C 84 % 1008,2 hPa 0,0 l/m 0,1 km/h N 9,5 C 12,1 C 1,2 km/h
28.10.2013 21:00 11,8 C 83 % 1008,8 hPa 0,0 l/m 0,1 km/h N 9,0 C 11,8 C 2,0 km/h
28.10.2013 22:00 10,9 C 83 % 1009,3 hPa 0,0 l/m 0,0 km/h N 8,1 C 10,9 C 0,0 km/h
28.10.2013 23:00 10,3 C 82 % 1009,7 hPa 0,0 l/m 0,1 km/h N 7,4 C 10,3 C 0,8 km/h
29.10.2013 00:00 10,1 C 82 % 1010,4 hPa 0,0 l/m 0,0 km/h N 7,1 C 10,1 C 0,4 km/h
29.10.2013 01:00 9,5 C 82 % 1011,0 hPa 0,0 l/m 0,0 km/h N 6,6 C 9,5 C 0,0 km/h
29.10.2013 02:00 9,0 C 81 % 1011,4 hPa 0,0 l/m 0,0 km/h N 6,0 C 9,0 C 0,8 km/h
29.10.2013 03:00 8,7 C 81 % 1011,8 hPa 0,0 l/m 0,0 km/h N 5,6 C 8,7 C 0,8 km/h
29.10.2013 04:00 8,4 C 81 % 1012,5 hPa 0,0 l/m 0,0 km/h N 5,3 C 8,4 C 0,4 km/h
29.10.2013 05:00 7,9 C 80 % 1013,0 hPa 0,0 l/m 0,0 km/h N 4,7 C 7,9 C 0,4 km/h
29.10.2013 06:00 8,0 C 80 % 1013,4 hPa 0,0 l/m 0,0 km/h N 4,7 C 8,0 C 0,0 km/h
29.10.2013 07:00 9,4 C 78 % 1014,4 hPa 0,3 l/m 0,1 km/h N 5,7 C 9,4 C 1,6 km/h
29.10.2013 08:00 10,5 C 77 % 1015,1 hPa 0,0 l/m 0,1 km/h N 6,5 C 10,5 C 0,8 km/h
29.10.2013 09:00 11,9 C 75 % 1015,7 hPa 0,0 l/m 0,1 km/h N 7,6 C 11,9 C 2,0 km/h
29.10.2013 10:00 13,8 C 76 % 1016,1 hPa 0,0 l/m 4,7 km/h N 9,6 C 13,3 C 18,5 km/h
29.10.2013 11:00 15,1 C 65 % 1016,2 hPa 0,0 l/m 6,7 km/h N 8,5 C 14,6 C 24,1 km/h
29.10.2013 12:00 14,7 C 65 % 1016,3 hPa 0,0 l/m 4,4 km/h N 8,2 C 14,7 C 18,9 km/h
29.10.2013 13:00 14,3 C 67 % 1016,6 hPa 0,0 l/m 1,7 km/h N 8,2 C 14,3 C 11,7 km/h
29.10.2013 14:00 13,9 C 69 % 1017,0 hPa 0,0 l/m 2,5 km/h N 8,3 C 13,9 C 10,1 km/h
29.10.2013 15:00 12,7 C 79 % 1017,5 hPa 0,0 l/m 3,7 km/h N 9,1 C 12,6 C 11,3 km/h
29.10.2013 16:00 12,3 C 81 % 1017,7 hPa 0,0 l/m 0,8 km/h N 9,0 C 12,3 C 4,8 km/h
29.10.2013 17:00 12,3 C 79 % 1018,1 hPa 0,0 l/m 1,7 km/h N 8,7 C 12,3 C 6,8 km/h
29.10.2013 18:00 12,4 C 78 % 1018,7 hPa 0,0 l/m 1,2 km/h N 8,5 C 12,4 C 6,4 km/h
29.10.2013 19:00 12,5 C 77 % 1018,8 hPa 0,0 l/m 1,9 km/h N 8,7 C 12,5 C 9,3 km/h
29.10.2013 20:00 12,0 C 80 % 1018,8 hPa 0,0 l/m 0,4 km/h N 8,6 C 12,0 C 3,6 km/h
29.10.2013 21:00 11,6 C 82 % 1019,0 hPa 0,0 l/m 0,3 km/h N 8,6 C 11,6 C 4,0 km/h
29.10.2013 22:00 11,1 C 83 % 1018,9 hPa 0,0 l/m 0,0 km/h N 8,3 C 11,1 C 0,4 km/h
29.10.2013 23:00 10,9 C 84 % 1018,9 hPa 0,0 l/m 0,0 km/h N 8,3 C 10,9 C 0,4 km/h
30.10.2013 00:00 11,1 C 84 % 1019,4 hPa 0,3 l/m 0,1 km/h N 8,5 C 11,1 C 2,4 km/h
30.10.2013 01:00 10,9 C 84 % 1019,9 hPa 0,8 l/m 0,4 km/h N 8,3 C 10,9 C 4,0 km/h
30.10.2013 02:00 10,5 C 84 % 1020,4 hPa 0,0 l/m 0,0 km/h N 8,0 C 10,5 C 0,4 km/h
30.10.2013 03:00 10,5 C 84 % 1020,5 hPa 0,0 l/m 1,9 km/h N 7,9 C 10,5 C 7,3 km/h
30.10.2013 04:00 10,7 C 84 % 1020,4 hPa 0,0 l/m 0,6 km/h N 8,0 C 10,7 C 6,4 km/h
30.10.2013 05:00 10,7 C 82 % 1020,7 hPa 0,0 l/m 0,5 km/h N 7,7 C 10,7 C 4,0 km/h
30.10.2013 06:00 10,5 C 82 % 1021,1 hPa 0,0 l/m 0,2 km/h N 7,6 C 10,5 C 4,4 km/h
30.10.2013 07:00 10,6 C 80 % 1021,6 hPa 0,0 l/m 2,5 km/h N 7,3 C 10,6 C 9,3 km/h
30.10.2013 08:00 11,7 C 76 % 1022,5 hPa 0,3 l/m 8,1 km/h N 7,5 C 10,5 C 20,5 km/h
30.10.2013 09:00 11,8 C 78 % 1023,2 hPa 0,0 l/m 7,5 km/h N 8,0 C 11,0 C 18,5 km/h
30.10.2013 10:00 11,9 C 78 % 1023,8 hPa 0,0 l/m 7,4 km/h N 8,2 C 11,3 C 20,9 km/h
30.10.2013 11:00 12,2 C 78 % 1024,3 hPa 0,0 l/m 4,9 km/h N 8,5 C 12,1 C 16,9 km/h
30.10.2013 12:00 12,2 C 78 % 1024,6 hPa 0,0 l/m 5,4 km/h N 8,4 C 12,2 C 20,1 km/h
30.10.2013 13:00 12,3 C 76 % 1024,4 hPa 0,0 l/m 8,3 km/h N 8,1 C 11,1 C 20,5 km/h
30.10.2013 14:00 12,2 C 76 % 1024,6 hPa 0,0 l/m 6,3 km/h N 8,0 C 12,1 C 18,9 km/h
30.10.2013 15:00 11,9 C 75 % 1024,7 hPa 0,0 l/m 5,4 km/h N 7,6 C 11,9 C 17,3 km/h
30.10.2013 16:00 11,4 C 77 % 1024,9 hPa 0,0 l/m 4,4 km/h N 7,4 C 11,4 C 15,7 km/h
30.10.2013 17:00 11,1 C 76 % 1025,2 hPa 0,0 l/m 2,9 km/h N 7,1 C 11,1 C 12,1 km/h
30.10.2013 18:00 10,8 C 75 % 1026,0 hPa 0,0 l/m 0,6 km/h N 6,5 C 10,8 C 6,0 km/h
30.10.2013 19:00 10,3 C 75 % 1026,4 hPa 0,0 l/m 1,5 km/h N 6,1 C 10,3 C 10,1 km/h
30.10.2013 20:00 9,6 C 77 % 1027,0 hPa 0,0 l/m 0,4 km/h N 5,7 C 9,6 C 4,0 km/h
30.10.2013 21:00 9,5 C 77 % 1027,5 hPa 0,0 l/m 0,3 km/h N 5,6 C 9,5 C 3,2 km/h
30.10.2013 22:00 9,3 C 75 % 1027,8 hPa 0,0 l/m 0,3 km/h N 5,2 C 9,3 C 2,4 km/h
30.10.2013 23:00 7,4 C 78 % 1028,1 hPa 0,0 l/m 0,0 km/h N 3,8 C 7,4 C 0,0 km/h
31.10.2013 00:00 5,8 C 81 % 1028,4 hPa 0,0 l/m 0,0 km/h N 2,8 C 5,8 C 0,0 km/h
31.10.2013 01:00 4,9 C 84 % 1028,6 hPa 0,0 l/m 0,0 km/h N 2,5 C 4,9 C 0,0 km/h
31.10.2013 02:00 4,3 C 85 % 1028,8 hPa 0,0 l/m 0,0 km/h N 2,0 C 4,3 C 0,4 km/h
31.10.2013 03:00 3,7 C 85 % 1028,7 hPa 0,0 l/m 0,0 km/h N 1,4 C 3,7 C 0,0 km/h
31.10.2013 04:00 3,3 C 85 % 1028,9 hPa 0,0 l/m 0,0 km/h N 0,9 C 3,3 C 0,0 km/h
31.10.2013 05:00 3,3 C 84 % 1028,7 hPa 0,0 l/m 0,0 km/h N 0,8 C 3,3 C 0,4 km/h
31.10.2013 06:00 3,3 C 83 % 1028,7 hPa 0,0 l/m 0,1 km/h N 0,7 C 3,3 C 2,0 km/h
31.10.2013 07:00 3,4 C 82 % 1028,9 hPa 0,0 l/m 0,2 km/h N 0,7 C 3,4 C 2,8 km/h
31.10.2013 08:00 5,6 C 79 % 1029,0 hPa 0,0 l/m 0,1 km/h N 2,3 C 5,6 C 1,6 km/h
31.10.2013 09:00 8,4 C 81 % 1028,7 hPa 0,0 l/m 0,4 km/h N 5,3 C 8,4 C 4,0 km/h
31.10.2013 10:00 10,1 C 83 % 1028,3 hPa 0,0 l/m 0,9 km/h N 7,4 C 10,1 C 4,8 km/h
31.10.2013 11:00 12,1 C 74 % 1027,5 hPa 0,0 l/m 2,6 km/h N 7,6 C 12,1 C 9,7 km/h
31.10.2013 12:00 13,5 C 66 % 1026,6 hPa 0,0 l/m 2,5 km/h N 7,2 C 13,5 C 11,3 km/h
31.10.2013 13:00 14,1 C 62 % 1025,7 hPa 0,0 l/m 3,9 km/h N 6,8 C 14,1 C 16,1 km/h
31.10.2013 14:00 14,2 C 63 % 1025,0 hPa 0,0 l/m 3,3 km/h N 7,2 C 14,2 C 13,3 km/h
31.10.2013 15:00 13,4 C 63 % 1024,7 hPa 0,0 l/m 4,0 km/h N 6,6 C 13,4 C 16,1 km/h
31.10.2013 16:00 12,1 C 68 % 1024,3 hPa 0,0 l/m 0,5 km/h N 6,3 C 12,1 C 4,4 km/h
31.10.2013 17:00 10,1 C 72 % 1024,3 hPa 0,0 l/m 0,0 km/h N 5,2 C 10,1 C 0,0 km/h
31.10.2013 18:00 8,7 C 79 % 1024,1 hPa 0,0 l/m 0,1 km/h N 5,1 C 8,7 C 1,6 km/h
31.10.2013 19:00 7,7 C 78 % 1023,9 hPa 0,0 l/m 0,0 km/h N 4,1 C 7,7 C 0,0 km/h
31.10.2013 20:00 5,9 C 81 % 1023,6 hPa 0,0 l/m 0,0 km/h N 2,9 C 5,9 C 0,0 km/h
31.10.2013 21:00 4,8 C 84 % 1023,6 hPa 0,0 l/m 0,0 km/h N 2,2 C 4,8 C 0,8 km/h
31.10.2013 22:00 4,4 C 85 % 1023,4 hPa 0,0 l/m 0,0 km/h N 2,1 C 4,4 C 0,0 km/h
31.10.2013 23:00 3,9 C 85 % 1023,4 hPa 0,0 l/m 0,0 km/h N 1,5 C 3,9 C 0,8 km/h
01.11.2013 00:00 3,5 C 84 % 1023,2 hPa 0,0 l/m 0,0 km/h N 1,1 C 3,5 C 0,8 km/h
01.11.2013 01:00 3,2 C 84 % 1023,0 hPa 0,0 l/m 0,0 km/h N 0,7 C 3,2 C 0,4 km/h
01.11.2013 02:00 3,0 C 83 % 1022,9 hPa 0,0 l/m 0,0 km/h N 0,4 C 3,0 C 0,8 km/h
01.11.2013 03:00 3,0 C 83 % 1023,2 hPa 0,0 l/m 0,2 km/h N 0,4 C 3,0 C 3,2 km/h
01.11.2013 04:00 3,1 C 82 % 1023,2 hPa 0,0 l/m 0,1 km/h N 0,4 C 3,1 C 1,6 km/h
01.11.2013 05:00 2,9 C 82 % 1023,2 hPa 0,0 l/m 0,0 km/h N 0,1 C 2,9 C 0,4 km/h
01.11.2013 06:00 3,1 C 81 % 1023,1 hPa 0,0 l/m 0,0 km/h N 0,1 C 3,1 C 0,0 km/h
01.11.2013 07:00 3,4 C 81 % 1023,7 hPa 0,0 l/m 0,0 km/h N 0,3 C 3,4 C 0,0 km/h
01.11.2013 08:00 5,6 C 78 % 1023,9 hPa 0,0 l/m 0,0 km/h N 2,1 C 5,6 C 0,4 km/h
01.11.2013 09:00 8,9 C 78 % 1023,7 hPa 0,0 l/m 0,5 km/h N 5,3 C 8,9 C 4,0 km/h
01.11.2013 10:00 11,1 C 82 % 1023,4 hPa 0,0 l/m 0,7 km/h N 8,0 C 11,1 C 5,6 km/h
01.11.2013 11:00 13,1 C 74 % 1022,6 hPa 0,0 l/m 1,0 km/h N 8,5 C 13,1 C 6,8 km/h
01.11.2013 12:00 13,6 C 71 % 1022,0 hPa 0,0 l/m 1,0 km/h N 8,3 C 13,6 C 6,8 km/h
01.11.2013 13:00 13,9 C 71 % 1021,3 hPa 0,0 l/m 0,7 km/h N 8,7 C 13,9 C 5,2 km/h
01.11.2013 14:00 13,9 C 70 % 1020,6 hPa 0,0 l/m 0,7 km/h N 8,4 C 13,9 C 6,0 km/h
01.11.2013 15:00 13,6 C 70 % 1020,4 hPa 0,0 l/m 0,0 km/h N 8,3 C 13,6 C 1,2 km/h
01.11.2013 16:00 12,2 C 72 % 1020,2 hPa 0,0 l/m 0,0 km/h N 7,4 C 12,2 C 0,0 km/h
01.11.2013 17:00 9,9 C 77 % 1020,1 hPa 0,0 l/m 0,0 km/h N 6,1 C 9,9 C 0,0 km/h
01.11.2013 18:00 8,4 C 82 % 1020,0 hPa 0,0 l/m 0,0 km/h N 5,4 C 8,4 C 0,0 km/h
01.11.2013 19:00 7,9 C 84 % 1019,3 hPa 0,0 l/m 0,0 km/h N 5,4 C 7,9 C 0,0 km/h
01.11.2013 20:00 7,4 C 85 % 1018,8 hPa 0,0 l/m 0,0 km/h N 4,9 C 7,4 C 0,0 km/h
01.11.2013 21:00 6,9 C 85 % 1018,2 hPa 0,0 l/m 0,0 km/h N 4,5 C 6,9 C 0,0 km/h
01.11.2013 22:00 6,2 C 84 % 1017,3 hPa 0,0 l/m 0,0 km/h N 3,7 C 6,2 C 0,0 km/h
01.11.2013 23:00 5,8 C 84 % 1016,9 hPa 0,0 l/m 0,0 km/h N 3,3 C 5,8 C 0,0 km/h
02.11.2013 00:00 5,5 C 84 % 1016,3 hPa 0,0 l/m 0,0 km/h N 2,9 C 5,5 C 0,0 km/h
02.11.2013 01:00 4,9 C 83 % 1015,3 hPa 0,0 l/m 0,0 km/h N 2,3 C 4,9 C 0,0 km/h
02.11.2013 02:00 5,0 C 82 % 1014,5 hPa 0,0 l/m 0,0 km/h N 2,2 C 5,0 C 0,0 km/h
02.11.2013 03:00 4,5 C 82 % 1013,6 hPa 0,0 l/m 0,0 km/h N 1,7 C 4,5 C 0,4 km/h
02.11.2013 04:00 3,8 C 82 % 1013,0 hPa 0,0 l/m 0,0 km/h N 1,0 C 3,8 C 0,4 km/h
02.11.2013 05:00 4,5 C 81 % 1012,1 hPa 0,0 l/m 0,0 km/h N 1,4 C 4,5 C 0,0 km/h
02.11.2013 06:00 6,0 C 79 % 1011,3 hPa 0,0 l/m 0,0 km/h N 2,7 C 6,0 C 0,0 km/h
02.11.2013 07:00 7,2 C 78 % 1011,2 hPa 0,0 l/m 0,1 km/h N 3,6 C 7,2 C 1,6 km/h
02.11.2013 08:00 7,7 C 78 % 1010,9 hPa 0,0 l/m 0,1 km/h N 4,2 C 7,7 C 2,4 km/h
02.11.2013 09:00 8,1 C 78 % 1011,0 hPa 0,0 l/m 1,6 km/h N 4,5 C 8,1 C 6,4 km/h
02.11.2013 10:00 8,4 C 78 % 1011,1 hPa 0,0 l/m 3,1 km/h N 4,9 C 8,4 C 10,9 km/h
02.11.2013 11:00 8,8 C 81 % 1011,1 hPa 0,0 l/m 2,2 km/h N 5,7 C 8,8 C 8,0 km/h
02.11.2013 12:00 9,3 C 85 % 1010,8 hPa 0,0 l/m 2,3 km/h N 6,8 C 9,3 C 9,3 km/h
02.11.2013 13:00 10,0 C 84 % 1011,0 hPa 0,0 l/m 0,6 km/h N 7,4 C 10,0 C 4,8 km/h
02.11.2013 14:00 10,5 C 82 % 1011,1 hPa 0,0 l/m 0,4 km/h N 7,6 C 10,5 C 4,4 km/h
02.11.2013 15:00 10,5 C 82 % 1010,7 hPa 0,0 l/m 1,0 km/h N 7,6 C 10,5 C 6,4 km/h
02.11.2013 16:00 10,1 C 83 % 1010,3 hPa 0,0 l/m 2,5 km/h N 7,3 C 10,1 C 8,0 km/h
02.11.2013 17:00 9,0 C 83 % 1011,0 hPa 0,0 l/m 0,2 km/h N 6,2 C 9,0 C 2,4 km/h
02.11.2013 18:00 7,6 C 85 % 1011,0 hPa 0,0 l/m 0,0 km/h N 5,1 C 7,6 C 0,0 km/h
02.11.2013 19:00 7,1 C 84 % 1011,0 hPa 0,0 l/m 0,1 km/h N 4,5 C 7,1 C 1,6 km/h
02.11.2013 20:00 7,8 C 83 % 1011,0 hPa 0,0 l/m 0,4 km/h N 5,0 C 7,8 C 4,4 km/h
02.11.2013 21:00 7,0 C 84 % 1011,4 hPa 0,0 l/m 0,0 km/h N 4,4 C 7,0 C 0,0 km/h
02.11.2013 22:00 5,9 C 84 % 1011,3 hPa 0,0 l/m 0,0 km/h N 3,4 C 5,9 C 1,2 km/h
02.11.2013 23:00 5,6 C 83 % 1010,8 hPa 0,0 l/m 0,1 km/h N 2,8 C 5,6 C 2,0 km/h
03.11.2013 00:00 5,6 C 82 % 1010,6 hPa 0,0 l/m 0,0 km/h N 2,8 C 5,6 C 1,2 km/h
03.11.2013 01:00 5,6 C 81 % 1010,2 hPa 0,0 l/m 0,0 km/h N 2,6 C 5,6 C 1,2 km/h
03.11.2013 02:00 5,6 C 81 % 1009,6 hPa 0,0 l/m 0,0 km/h N 2,6 C 5,6 C 0,0 km/h
03.11.2013 03:00 5,7 C 80 % 1008,5 hPa 0,0 l/m 0,0 km/h N 2,6 C 5,7 C 0,4 km/h
03.11.2013 04:00 6,1 C 80 % 1007,6 hPa 0,0 l/m 0,1 km/h N 2,9 C 6,1 C 0,8 km/h
03.11.2013 05:00 6,3 C 79 % 1006,8 hPa 0,0 l/m 0,1 km/h N 3,0 C 6,3 C 1,6 km/h
03.11.2013 06:00 6,2 C 79 % 1006,2 hPa 0,0 l/m 0,0 km/h N 2,9 C 6,2 C 0,4 km/h
03.11.2013 07:00 6,0 C 79 % 1005,8 hPa 0,0 l/m 0,0 km/h N 2,6 C 6,0 C 0,4 km/h
03.11.2013 08:00 6,9 C 78 % 1005,5 hPa 0,0 l/m 0,0 km/h N 3,2 C 6,9 C 0,0 km/h
03.11.2013 09:00 8,2 C 77 % 1005,1 hPa 0,0 l/m 0,3 km/h N 4,3 C 8,2 C 2,4 km/h
03.11.2013 10:00 9,7 C 76 % 1005,0 hPa 0,0 l/m 0,2 km/h N 5,6 C 9,7 C 3,6 km/h
03.11.2013 11:00 11,7 C 79 % 1004,1 hPa 0,3 l/m 2,9 km/h N 8,2 C 11,7 C 15,3 km/h
03.11.2013 12:00 12,8 C 83 % 1004,3 hPa 0,0 l/m 2,2 km/h N 10,0 C 12,8 C 11,6 km/h
03.11.2013 13:00 13,1 C 81 % 1005,0 hPa 0,5 l/m 10,5 km/h N 10,0 C 10,9 C 31,4 km/h
03.11.2013 14:00 11,8 C 81 % 1006,0 hPa 1,3 l/m 17,5 km/h N 8,6 C 6,5 C 42,6 km/h
03.11.2013 15:00 10,7 C 75 % 1006,3 hPa 0,3 l/m 20,7 km/h N 6,4 C 4,0 C 52,7 km/h
03.11.2013 16:00 10,5 C 71 % 1006,4 hPa 0,0 l/m 19,6 km/h N 5,5 C 4,1 C 48,7 km/h
03.11.2013 17:00 11,0 C 64 % 1006,8 hPa 0,0 l/m 17,1 km/h N 4,5 C 5,6 C 43,9 km/h
03.11.2013 18:00 11,0 C 64 % 1008,7 hPa 0,0 l/m 16,5 km/h N 4,4 C 5,8 C 39,0 km/h
03.11.2013 19:00 10,6 C 66 % 1010,7 hPa 0,0 l/m 14,3 km/h N 4,4 C 6,2 C 36,6 km/h
03.11.2013 20:00 10,5 C 64 % 1011,4 hPa 0,0 l/m 14,0 km/h N 4,0 C 6,3 C 35,0 km/h
03.11.2013 21:00 10,6 C 61 % 1011,9 hPa 0,0 l/m 8,3 km/h N 3,5 C 9,4 C 27,3 km/h
03.11.2013 22:00 10,4 C 62 % 1012,0 hPa 0,0 l/m 10,9 km/h N 3,4 C 7,7 C 29,4 km/h
03.11.2013 23:00 10,0 C 64 % 1012,4 hPa 0,0 l/m 5,0 km/h N 3,5 C 9,5 C 18,5 km/h
Min-Datum _ 01.11.13 31.10.13 03.11.13 - 28.10.13 - 01.11.13 03.11.13 28.10.13
_ Min-Zeit 05:45 13:15 11:15 - 02:45 - 05:45 15:45 03:15
Minimum _ 2,7 C 59 % 1004,0 hPa - 0,0 km/h - -0,1 C 2,5 C 0,0 km/h
Max-Datum _ 28.10.13 31.10.13 31.10.13 03.11.13 03.11.13 - 28.10.13 28.10.13 03.11.13
_ Max-Zeit 14:45 01:45 07:15 14:00 15:45 - 14:00 14:45 15:00
Maximum _ 22,2 C 85 % 1029,0 hPa 1,3 l/m 25,1 km/h
N
- 14,7 C 22,1 C 56,3 km/h
N
Durchschnitt _ 10,0 C 78 % 1016,9 hPa #4,4 l/m 2,1 km/h N 6,2 C 9,7 C 7,2 km/h